Time;durP1;ratioP1;P1;durP2;ratioP2;P2;SDS_P1;SDS_P2;PMS_P1;PMS_P2;Temp;Humidity;BMP_temperature;BMP_pressure;BME280_temperature;BME280_humidity;BME280_pressure;Samples;Min_cycle;Max_cycle;Signal;HPM_P1;HPM_P2
2023/05/04 00:01:23;;;;;;;5.73;5.23;;;8.30;62.10;;;;;;6244179;28;20247;-84
2023/05/04 00:04:26;;;;;;;6.13;5.63;;;8.30;62.20;;;;;;6229492;28;20760;-84
2023/05/04 00:07:30;;;;;;;6.67;4.80;;;8.20;62.50;;;;;;6246316;28;20240;-78
2023/05/04 00:10:33;;;;;;;5.67;5.13;;;8.20;62.50;;;;;;6246448;28;20243;-82
2023/05/04 00:13:36;;;;;;;6.90;5.13;;;8.10;62.70;;;;;;6231093;28;20478;-82
2023/05/04 00:16:40;;;;;;;6.37;5.20;;;8.10;62.80;;;;;;6222966;28;20232;-85
2023/05/04 00:19:44;;;;;;;5.40;5.10;;;8.10;63.00;;;;;;6232218;28;20246;-82
2023/05/04 00:22:47;;;;;;;5.40;4.80;;;8.00;63.00;;;;;;6223355;28;20303;-83
2023/05/04 00:25:51;;;;;;;7.87;5.60;;;8.00;63.20;;;;;;6239562;28;20238;-84
2023/05/04 00:28:54;;;;;;;5.20;4.80;;;7.90;63.50;;;;;;6241051;28;20241;-83
2023/05/04 00:31:59;;;;;;;5.50;5.07;;;7.80;63.50;;;;;;6240267;28;20239;-85
2023/05/04 00:35:02;;;;;;;5.87;5.47;;;7.80;63.60;;;;;;6246704;28;20263;-82
2023/05/04 00:38:05;;;;;;;5.17;4.53;;;7.80;63.60;;;;;;6235558;28;20231;-83
2023/05/04 00:41:09;;;;;;;9.43;5.47;;;7.80;63.80;;;;;;6217144;28;20325;-82
2023/05/04 00:44:12;;;;;;;5.23;4.53;;;7.60;64.00;;;;;;6218666;28;20232;-84
2023/05/04 00:47:18;;;;;;;5.40;5.00;;;7.60;64.10;;;;;;6218636;28;20243;-83
2023/05/04 00:50:21;;;;;;;5.67;5.10;;;7.60;64.20;;;;;;6226096;28;20247;-83
2023/05/04 00:53:25;;;;;;;6.03;5.43;;;7.60;64.20;;;;;;6203347;28;20240;-85
2023/05/04 00:56:29;;;;;;;5.50;5.00;;;7.50;64.30;;;;;;6219439;28;20719;-85
2023/05/04 00:59:33;;;;;;;4.97;4.63;;;7.50;64.40;;;;;;6217056;28;20719;-84
2023/05/04 01:02:37;;;;;;;4.90;4.53;;;7.50;64.50;;;;;;6212622;28;20746;-84
2023/05/04 01:05:47;;;;;;;5.60;5.20;;;7.40;64.70;;;;;;6217646;28;20703;-85
2023/05/04 01:08:59;;;;;;;6.97;4.70;;;7.40;64.80;;;;;;6235710;28;20609;-88
2023/05/04 01:12:07;;;;;;;6.97;4.97;;;7.40;64.80;;;;;;6238084;28;20239;-84
2023/05/04 01:15:12;;;;;;;5.20;4.90;;;7.40;64.80;;;;;;6250234;28;20235;-82
2023/05/04 01:18:16;;;;;;;6.87;5.87;;;7.30;64.90;;;;;;6257224;28;20278;-77
2023/05/04 01:21:19;;;;;;;7.53;5.77;;;7.20;65.00;;;;;;6254616;28;20287;-78
2023/05/04 01:24:24;;;;;;;5.43;5.03;;;7.20;65.10;;;;;;6252567;28;20270;-79
2023/05/04 01:27:35;;;;;;;5.10;4.90;;;7.20;65.20;;;;;;6249955;28;20271;-80
2023/05/04 01:30:42;;;;;;;5.83;5.40;;;7.20;65.30;;;;;;6242111;28;20224;-79
2023/05/04 01:33:45;;;;;;;7.47;6.00;;;7.10;65.50;;;;;;6251405;28;20430;-79
2023/05/04 01:36:49;;;;;;;5.03;4.70;;;7.00;65.60;;;;;;6269561;28;20294;-79
2023/05/04 01:39:53;;;;;;;5.17;4.77;;;7.00;65.70;;;;;;6246048;28;20223;-79
2023/05/04 01:42:56;;;;;;;5.73;5.23;;;7.00;65.80;;;;;;6246447;28;20370;-78
2023/05/04 01:46:00;;;;;;;6.43;5.77;;;7.00;65.80;;;;;;6237791;28;20321;-85
2023/05/04 01:49:03;;;;;;;6.33;5.67;;;7.00;65.80;;;;;;6228952;28;20246;-82
2023/05/04 01:52:06;;;;;;;8.83;5.50;;;7.00;66.10;;;;;;6224785;28;20250;-83
2023/05/04 01:55:11;;;;;;;7.47;5.27;;;6.90;66.00;;;;;;6217381;28;20243;-87
2023/05/04 01:58:14;;;;;;;6.17;5.57;;;6.90;66.10;;;;;;6226264;28;20290;-84
2023/05/04 02:01:17;;;;;;;5.80;5.20;;;7.00;66.00;;;;;;6218443;28;20232;-83
2023/05/04 02:04:20;;;;;;;6.17;5.30;;;6.90;66.20;;;;;;6220652;28;20239;-85
2023/05/04 02:07:23;;;;;;;6.03;5.40;;;6.90;66.10;;;;;;6208179;28;20227;-84
2023/05/04 02:10:28;;;;;;;5.20;4.77;;;6.90;66.10;;;;;;6225402;28;20285;-84
2023/05/04 02:13:31;;;;;;;5.53;5.00;;;6.90;66.00;;;;;;6220305;28;20231;-83
2023/05/04 02:16:34;;;;;;;6.77;5.47;;;6.90;66.10;;;;;;6203462;28;20246;-85
2023/05/04 02:19:37;;;;;;;9.63;5.33;;;6.90;66.00;;;;;;6219567;28;20235;-87
2023/05/04 02:22:40;;;;;;;6.13;5.20;;;6.90;65.90;;;;;;6217398;28;20249;-86
2023/05/04 02:25:45;;;;;;;5.77;4.90;;;6.90;66.10;;;;;;6240373;28;20254;-80
2023/05/04 02:28:48;;;;;;;10.10;5.53;;;6.90;65.80;;;;;;6244816;28;20242;-80
2023/05/04 02:31:51;;;;;;;5.97;5.37;;;6.80;65.90;;;;;;6248239;28;20224;-79
2023/05/04 02:34:54;;;;;;;9.10;5.27;;;6.80;65.80;;;;;;6242199;28;20279;-78
2023/05/04 02:37:57;;;;;;;5.40;4.90;;;6.80;65.90;;;;;;6252607;28;20239;-79
2023/05/04 02:41:01;;;;;;;5.17;4.70;;;6.80;65.90;;;;;;6245772;28;20219;-79
2023/05/04 02:44:05;;;;;;;5.57;5.00;;;6.80;65.80;;;;;;6240853;28;20219;-78
2023/05/04 02:47:08;;;;;;;5.53;5.07;;;6.80;65.90;;;;;;6248051;28;20271;-79
2023/05/04 02:50:12;;;;;;;4.90;4.60;;;6.80;66.00;;;;;;6230099;28;20228;-79
2023/05/04 02:53:15;;;;;;;5.80;5.30;;;6.70;65.90;;;;;;6237165;28;20220;-84
2023/05/04 02:56:20;;;;;;;5.47;4.90;;;6.70;65.90;;;;;;6208583;28;20666;-83
2023/05/04 02:59:23;;;;;;;6.03;5.23;;;6.70;66.00;;;;;;6207333;28;20242;-84
2023/05/04 03:02:26;;;;;;;5.03;4.47;;;6.70;66.00;;;;;;6214805;28;20239;-82
2023/05/04 03:05:30;;;;;;;7.93;4.90;;;6.70;66.10;;;;;;6214167;28;20287;-82
2023/05/04 03:08:33;;;;;;;9.80;5.30;;;6.60;66.00;;;;;;6215208;28;20289;-82
2023/05/04 03:11:37;;;;;;;5.40;5.00;;;6.60;66.10;;;;;;6203147;28;20246;-85
2023/05/04 03:14:40;;;;;;;5.00;4.60;;;6.50;66.10;;;;;;6209194;28;20333;-84
2023/05/04 03:17:43;;;;;;;6.13;5.07;;;6.50;66.20;;;;;;6213214;28;20238;-84
2023/05/04 03:20:46;;;;;;;6.93;5.00;;;6.50;66.20;;;;;;6198716;28;20247;-83
2023/05/04 03:23:50;;;;;;;5.87;5.10;;;6.50;66.30;;;;;;6200048;28;20797;-81
2023/05/04 03:26:56;;;;;;;7.57;5.57;;;6.50;66.40;;;;;;6215609;28;20243;-84
2023/05/04 03:29:59;;;;;;;14.17;5.70;;;6.50;66.40;;;;;;6230787;28;20234;-84
2023/05/04 03:33:02;;;;;;;6.83;5.53;;;6.50;66.30;;;;;;6210272;28;20240;-84
2023/05/04 03:36:05;;;;;;;7.43;5.20;;;6.50;66.20;;;;;;6221314;28;20388;-82
2023/05/04 03:39:08;;;;;;;7.33;5.47;;;6.50;66.10;;;;;;6218618;28;20635;-83
2023/05/04 03:42:13;;;;;;;10.00;6.00;;;6.50;66.30;;;;;;6213417;28;20270;-80
2023/05/04 03:45:16;;;;;;;6.00;5.50;;;6.50;66.20;;;;;;6206158;28;20299;-80
2023/05/04 03:48:19;;;;;;;7.27;5.07;;;6.50;66.10;;;;;;6219162;28;20227;-81
2023/05/04 03:51:22;;;;;;;6.90;5.40;;;6.50;66.00;;;;;;6229752;28;20243;-80
2023/05/04 03:54:26;;;;;;;6.70;5.97;;;6.60;66.00;;;;;;6219131;28;20234;-81
2023/05/04 03:57:30;;;;;;;5.60;5.10;;;6.50;66.00;;;;;;6232143;28;20245;-82
2023/05/04 04:00:33;;;;;;;6.13;5.37;;;6.50;66.10;;;;;;6233435;28;20227;-83
2023/05/04 04:03:37;;;;;;;5.30;4.90;;;6.60;66.00;;;;;;6230335;28;20253;-82
2023/05/04 04:06:41;;;;;;;8.30;5.87;;;6.60;65.70;;;;;;6235868;28;20341;-82
2023/05/04 04:09:45;;;;;;;7.03;6.17;;;6.60;65.80;;;;;;6231467;28;20276;-82
2023/05/04 04:12:50;;;;;;;6.00;5.40;;;6.70;65.60;;;;;;6228482;28;20240;-83
2023/05/04 04:15:53;;;;;;;7.27;5.40;;;6.60;65.60;;;;;;6239074;28;20246;-82
2023/05/04 04:18:57;;;;;;;8.43;5.50;;;6.60;65.80;;;;;;6216184;28;21083;-83
2023/05/04 04:22:00;;;;;;;7.77;6.07;;;6.60;65.80;;;;;;6210633;28;20788;-82
2023/05/04 04:25:04;;;;;;;7.87;5.57;;;6.60;66.10;;;;;;6212899;28;20786;-82
2023/05/04 04:28:09;;;;;;;8.97;5.43;;;6.70;65.70;;;;;;6234722;28;20314;-83
2023/05/04 04:31:12;;;;;;;5.50;5.10;;;6.70;65.50;;;;;;6237683;28;20238;-83
2023/05/04 04:34:15;;;;;;;6.93;5.37;;;6.80;65.30;;;;;;6238976;28;20233;-80
2023/05/04 04:37:18;;;;;;;5.97;5.17;;;6.80;65.30;;;;;;6234025;28;20733;-83
2023/05/04 04:40:21;;;;;;;5.50;5.00;;;6.80;65.40;;;;;;6237921;28;20242;-81
2023/05/04 04:43:26;;;;;;;7.30;5.80;;;6.80;65.30;;;;;;6232783;28;20323;-80
2023/05/04 04:46:29;;;;;;;6.47;5.77;;;6.90;65.40;;;;;;6236904;28;20330;-82
2023/05/04 04:49:32;;;;;;;6.53;5.40;;;6.90;65.30;;;;;;6235154;28;20238;-79
2023/05/04 04:52:36;;;;;;;5.70;5.00;;;7.00;65.40;;;;;;6244047;28;20234;-83
2023/05/04 04:55:41;;;;;;;6.87;5.27;;;7.00;65.40;;;;;;6242251;28;20234;-83
2023/05/04 04:58:46;;;;;;;5.60;5.10;;;7.20;65.10;;;;;;6236742;28;20227;-83
2023/05/04 05:01:49;;;;;;;7.23;5.30;;;7.20;64.80;;;;;;6243787;28;20974;-84
2023/05/04 05:04:52;;;;;;;6.23;5.67;;;7.40;64.10;;;;;;6244671;28;20246;-81
2023/05/04 05:07:56;;;;;;;6.00;5.47;;;7.50;63.40;;;;;;6234712;28;20302;-83
2023/05/04 05:10:59;;;;;;;7.83;5.47;;;7.60;63.20;;;;;;6238824;28;20239;-82
2023/05/04 05:14:03;;;;;;;6.00;5.47;;;7.80;63.20;;;;;;6238478;28;20241;-79
2023/05/04 05:17:07;;;;;;;12.67;5.67;;;7.90;62.90;;;;;;6230655;28;20758;-81
2023/05/04 05:20:10;;;;;;;8.53;5.80;;;8.00;62.50;;;;;;6220034;28;20237;-80
2023/05/04 05:23:13;;;;;;;5.23;4.70;;;8.30;62.10;;;;;;6232036;28;20238;-82
2023/05/04 05:26:16;;;;;;;6.70;6.10;;;8.50;61.90;;;;;;6230866;28;20250;-81
2023/05/04 05:29:21;;;;;;;6.37;5.43;;;8.80;61.70;;;;;;6227683;28;20232;-81
2023/05/04 05:32:24;;;;;;;7.27;5.60;;;9.00;61.00;;;;;;6244746;28;20294;-79
2023/05/04 05:35:27;;;;;;;10.30;5.63;;;9.20;60.70;;;;;;6235103;28;20235;-76
2023/05/04 05:38:30;;;;;;;6.73;5.40;;;9.40;60.10;;;;;;6236137;28;20238;-75
2023/05/04 05:41:34;;;;;;;6.10;5.40;;;9.70;59.80;;;;;;6233506;28;20738;-80
2023/05/04 05:44:38;;;;;;;6.87;5.63;;;10.00;58.80;;;;;;6235412;28;20241;-79
2023/05/04 05:47:41;;;;;;;6.40;5.50;;;10.30;58.60;;;;;;6238875;28;20243;-79
2023/05/04 05:50:45;;;;;;;6.27;5.27;;;10.50;57.90;;;;;;6252102;28;20247;-80
2023/05/04 05:53:48;;;;;;;6.07;5.33;;;10.80;57.50;;;;;;6239165;28;20234;-80
2023/05/04 05:56:51;;;;;;;5.63;5.20;;;10.90;57.20;;;;;;6237918;28;20234;-80
2023/05/04 05:59:59;;;;;;;8.37;5.93;;;11.00;56.60;;;;;;6250661;28;20249;-81
2023/05/04 06:03:02;;;;;;;7.10;5.23;;;11.30;56.20;;;;;;6237920;28;20321;-80
2023/05/04 06:06:05;;;;;;;8.27;5.73;;;11.50;55.70;;;;;;6238912;28;20711;-81
2023/05/04 06:09:08;;;;;;;6.63;5.50;;;11.80;55.00;;;;;;6239924;28;20242;-79
2023/05/04 06:12:13;;;;;;;7.57;5.23;;;12.00;54.70;;;;;;6229708;28;20235;-81
2023/05/04 06:15:18;;;;;;;6.03;5.27;;;12.20;54.40;;;;;;6234072;28;20246;-82
2023/05/04 06:18:21;;;;;;;6.87;5.10;;;12.50;53.90;;;;;;6237572;28;20255;-81
2023/05/04 06:21:24;;;;;;;17.67;5.73;;;12.50;53.90;;;;;;6227321;28;20866;-80
2023/05/04 06:24:28;;;;;;;6.10;5.30;;;12.50;53.90;;;;;;6239635;28;20761;-80
2023/05/04 06:27:32;;;;;;;6.63;5.60;;;12.70;53.70;;;;;;6241890;28;20246;-80
2023/05/04 06:30:36;;;;;;;6.10;4.83;;;12.90;53.30;;;;;;6237941;28;20235;-81
2023/05/04 06:33:39;;;;;;;7.77;5.23;;;13.10;52.50;;;;;;6238280;28;20236;-79
2023/05/04 06:36:42;;;;;;;7.07;5.33;;;13.40;52.60;;;;;;6262532;28;20305;-80
2023/05/04 06:39:45;;;;;;;6.03;5.53;;;13.50;51.60;;;;;;6220324;28;20239;-80
2023/05/04 06:42:48;;;;;;;6.93;5.27;;;13.60;51.40;;;;;;6213004;28;20285;-80
2023/05/04 06:45:53;;;;;;;11.53;5.37;;;13.70;50.90;;;;;;6208026;28;20913;-80
2023/05/04 06:48:57;;;;;;;6.33;5.50;;;13.90;51.70;;;;;;6222633;28;20255;-80
2023/05/04 06:52:00;;;;;;;9.60;5.90;;;14.00;51.60;;;;;;6216051;28;20235;-80
2023/05/04 06:55:03;;;;;;;13.63;5.40;;;14.00;51.30;;;;;;6243702;28;20233;-80
2023/05/04 06:58:06;;;;;;;6.67;5.87;;;14.20;50.40;;;;;;6245955;28;20726;-80
2023/05/04 07:01:11;;;;;;;17.90;5.57;;;14.30;50.00;;;;;;6235953;28;20246;-81
2023/05/04 07:04:15;;;;;;;7.23;4.83;;;14.30;50.00;;;;;;6242986;28;20247;-82
2023/05/04 07:07:18;;;;;;;6.17;5.73;;;14.50;50.20;;;;;;6234982;28;20238;-80
2023/05/04 07:10:22;;;;;;;10.77;5.67;;;14.70;50.80;;;;;;6251440;28;20265;-82
2023/05/04 07:13:26;;;;;;;5.43;4.93;;;14.90;51.00;;;;;;6240657;28;20670;-83
2023/05/04 07:16:31;;;;;;;10.97;5.30;;;14.90;49.50;;;;;;6241447;28;20324;-80
2023/05/04 07:19:35;;;;;;;13.57;5.47;;;14.80;50.00;;;;;;6239655;28;20241;-83
2023/05/04 07:22:37;;;;;;;9.90;5.80;;;14.70;50.30;;;;;;6238335;28;20237;-82
2023/05/04 07:25:41;;;;;;;11.67;6.03;;;14.60;50.20;;;;;;6243031;28;20239;-80
2023/05/04 07:28:44;;;;;;;5.73;5.23;;;14.50;49.80;;;;;;6236951;28;20743;-82
2023/05/04 07:31:48;;;;;;;8.90;5.20;;;14.60;50.40;;;;;;6249270;28;20235;-81
2023/05/04 07:34:51;;;;;;;9.53;4.97;;;14.70;49.30;;;;;;6245246;28;21176;-82
2023/05/04 07:37:54;;;;;;;7.47;5.57;;;14.80;49.20;;;;;;6236837;28;20261;-85
2023/05/04 07:40:58;;;;;;;8.10;5.33;;;14.70;49.30;;;;;;6237114;28;20242;-83
2023/05/04 07:44:04;;;;;;;11.40;4.70;;;14.70;49.10;;;;;;6234829;28;20246;-82
2023/05/04 07:47:09;;;;;;;8.17;4.67;;;14.80;49.20;;;;;;6242276;28;20587;-80
2023/05/04 07:50:13;;;;;;;5.20;4.73;;;14.60;49.60;;;;;;6233245;28;20750;-81
2023/05/04 07:53:16;;;;;;;8.13;5.07;;;14.60;49.50;;;;;;6244859;28;20243;-82
2023/05/04 07:56:19;;;;;;;7.80;5.20;;;14.50;49.60;;;;;;6249758;28;20241;-81
2023/05/04 07:59:22;;;;;;;5.17;4.40;;;14.40;49.80;;;;;;6244106;28;20245;-82
2023/05/04 08:02:26;;;;;;;4.40;4.10;;;14.40;49.60;;;;;;6250595;28;20246;-80
2023/05/04 08:05:29;;;;;;;9.20;5.00;;;14.40;49.10;;;;;;6240668;28;20294;-82
2023/05/04 08:08:32;;;;;;;5.30;4.73;;;14.50;49.30;;;;;;6240881;28;20257;-80
2023/05/04 08:11:36;;;;;;;7.13;4.87;;;14.60;49.70;;;;;;6242703;28;20653;-82
2023/05/04 08:14:39;;;;;;;6.47;4.30;;;14.70;49.20;;;;;;6237431;28;20234;-81
2023/05/04 08:17:44;;;;;;;4.83;4.43;;;14.70;49.20;;;;;;6235033;28;20710;-81
2023/05/04 08:20:47;;;;;;;5.33;4.80;;;14.70;49.10;;;;;;6238680;28;20283;-83
2023/05/04 08:23:50;;;;;;;8.17;4.83;;;14.80;49.30;;;;;;6236896;28;20784;-81
2023/05/04 08:26:56;;;;;;;8.80;4.83;;;14.80;49.30;;;;;;6235486;28;20241;-81
2023/05/04 08:30:10;;;;;;;4.63;4.30;;;14.90;48.90;;;;;;6258526;28;20231;-81
2023/05/04 08:33:14;;;;;;;6.37;4.40;;;15.00;48.60;;;;;;6273021;28;20320;-82
2023/05/04 08:36:17;;;;;;;6.23;4.20;;;15.00;49.30;;;;;;6269644;28;20246;-81
2023/05/04 08:39:20;;;;;;;7.90;4.67;;;15.10;47.60;;;;;;6267849;28;20235;-81
2023/05/04 08:42:30;;;;;;;4.83;4.50;;;15.20;47.90;;;;;;6248003;28;20862;-81
2023/05/04 08:45:37;;;;;;;5.67;4.50;;;15.10;47.90;;;;;;6238617;28;20541;-82
2023/05/04 08:48:43;;;;;;;6.43;4.13;;;15.30;47.80;;;;;;6233002;28;20258;-81
2023/05/04 08:51:48;;;;;;;7.73;4.47;;;15.30;47.20;;;;;;6240519;28;20782;-81
2023/05/04 08:54:54;;;;;;;6.10;4.50;;;15.50;46.60;;;;;;6239440;28;20231;-83
2023/05/04 08:58:03;;;;;;;4.77;4.37;;;15.60;45.80;;;;;;6247224;28;20234;-81
2023/05/04 09:01:07;;;;;;;5.80;4.20;;;15.80;45.70;;;;;;6237864;28;20291;-82
2023/05/04 09:04:13;;;;;;;5.60;3.37;;;16.00;45.60;;;;;;6225597;28;20833;-81
2023/05/04 09:07:16;;;;;;;4.43;3.93;;;16.10;44.70;;;;;;6232076;28;20231;-81
2023/05/04 09:10:20;;;;;;;4.37;4.00;;;16.30;44.60;;;;;;6233095;28;20231;-81
2023/05/04 09:13:23;;;;;;;4.33;4.00;;;16.30;44.70;;;;;;6252060;28;20675;-82
2023/05/04 09:16:34;;;;;;;4.97;3.90;;;16.40;44.50;;;;;;6240689;28;20238;-82
2023/05/04 09:19:42;;;;;;;4.53;3.70;;;16.40;45.00;;;;;;6239737;28;20265;-82
2023/05/04 09:22:45;;;;;;;8.33;4.03;;;16.50;44.90;;;;;;6236434;28;20642;-82
2023/05/04 09:25:49;;;;;;;4.10;3.90;;;16.70;44.20;;;;;;6230321;28;20326;-82
2023/05/04 09:28:52;;;;;;;10.07;4.33;;;16.60;45.30;;;;;;6235365;28;20246;-83
2023/05/04 09:31:55;;;;;;;4.00;3.50;;;16.70;45.40;;;;;;6240448;28;20250;-82
2023/05/04 09:35:00;;;;;;;5.47;3.73;;;16.80;45.40;;;;;;6240819;28;20239;-80
2023/05/04 09:38:03;;;;;;;4.50;4.10;;;17.00;45.50;;;;;;6243375;28;20237;-80
2023/05/04 09:41:07;;;;;;;7.13;3.80;;;17.20;44.00;;;;;;6233255;28;20327;-81
2023/05/04 09:44:18;;;;;;;4.37;4.00;;;17.40;44.70;;;;;;6250632;28;20226;-81
2023/05/04 09:47:22;;;;;;;5.33;4.33;;;17.40;44.20;;;;;;6237043;28;20234;-83
2023/05/04 09:50:32;;;;;;;5.70;4.20;;;17.50;44.20;;;;;;6229772;28;20837;-79
2023/05/04 09:53:39;;;;;;;14.80;4.60;;;17.50;44.00;;;;;;6228070;28;20243;-82
2023/05/04 09:56:47;;;;;;;7.27;3.93;;;17.40;43.10;;;;;;6210531;28;20235;-79
2023/05/04 09:59:51;;;;;;;4.63;4.20;;;17.40;44.00;;;;;;6232617;28;20239;-81
2023/05/04 10:02:54;;;;;;;9.97;4.80;;;17.20;43.90;;;;;;6219044;28;20239;-79
2023/05/04 10:06:02;;;;;;;6.07;4.77;;;17.00;44.10;;;;;;6212412;28;20298;-78
2023/05/04 10:09:06;;;;;;;9.30;4.10;;;17.10;43.70;;;;;;6211163;28;20319;-80
2023/05/04 10:12:09;;;;;;;5.30;4.30;;;17.00;44.30;;;;;;6208315;28;20242;-79
2023/05/04 10:15:12;;;;;;;6.27;4.17;;;17.20;43.50;;;;;;6216666;28;20234;-81
2023/05/04 10:18:27;;;;;;;4.07;3.87;;;17.40;42.90;;;;;;6243445;28;20238;-81
2023/05/04 10:21:41;;;;;;;4.13;3.77;;;17.50;43.20;;;;;;6237941;28;20243;-81
2023/05/04 10:25:07;;;;;;;4.33;4.00;;;17.80;42.80;;;;;;6243631;28;20226;-79
2023/05/04 10:28:22;;;;;;;3.60;3.37;;;18.00;42.90;;;;;;6242823;28;20223;-82
2023/05/04 10:31:36;;;;;;;5.27;3.70;;;18.30;42.30;;;;;;6251353;28;20222;-82
2023/05/04 10:34:39;;;;;;;6.47;4.30;;;18.10;42.40;;;;;;6245918;28;20316;-82
2023/05/04 10:37:53;;;;;;;4.50;4.20;;;18.30;42.20;;;;;;6251678;28;20309;-82
2023/05/04 10:40:56;;;;;;;4.30;4.00;;;18.10;42.50;;;;;;6242600;28;20294;-80
2023/05/04 10:44:04;;;;;;;4.50;4.20;;;18.10;41.80;;;;;;6242562;28;20234;-80
2023/05/04 10:47:08;;;;;;;7.03;4.00;;;18.00;41.80;;;;;;6241289;28;20341;-79
2023/05/04 10:50:13;;;;;;;10.43;4.40;;;18.00;42.20;;;;;;6256567;28;20851;-79
2023/05/04 10:53:18;;;;;;;6.27;4.60;;;18.10;42.00;;;;;;6260541;28;20235;-79
2023/05/04 10:56:22;;;;;;;4.73;4.03;;;18.10;42.10;;;;;;6248259;28;20233;-79
2023/05/04 10:59:25;;;;;;;5.50;3.70;;;18.20;42.00;;;;;;6242813;28;20238;-79
2023/05/04 11:02:29;;;;;;;4.03;3.73;;;18.30;41.40;;;;;;6242924;28;20677;-79
2023/05/04 11:05:42;;;;;;;7.10;3.77;;;18.50;41.90;;;;;;6235155;28;20238;-81
2023/05/04 11:08:49;;;;;;;4.80;4.00;;;18.80;41.50;;;;;;6230532;28;20223;-82
2023/05/04 11:11:53;;;;;;;4.00;3.60;;;18.90;40.90;;;;;;6241356;28;20242;-81
2023/05/04 11:15:05;;;;;;;5.07;4.20;;;18.90;40.60;;;;;;6246383;28;20332;-80
2023/05/04 11:18:08;;;;;;;4.73;4.30;;;18.60;40.80;;;;;;6248739;28;20258;-80
2023/05/04 11:21:12;;;;;;;7.67;4.20;;;18.30;41.20;;;;;;6241828;28;20238;-80
2023/05/04 11:24:18;;;;;;;7.93;4.50;;;18.30;41.60;;;;;;6240677;28;20247;-82
2023/05/04 11:27:23;;;;;;;5.13;4.27;;;18.40;41.40;;;;;;6236060;28;20242;-79
2023/05/04 11:30:32;;;;;;;4.27;3.87;;;18.60;41.70;;;;;;6237548;28;20239;-80
2023/05/04 11:33:35;;;;;;;5.30;4.80;;;18.80;42.00;;;;;;6244692;28;20320;-81
2023/05/04 11:36:38;;;;;;;5.07;4.00;;;18.80;40.70;;;;;;6243274;28;20325;-81
2023/05/04 11:39:43;;;;;;;11.20;5.00;;;18.90;40.90;;;;;;6246624;28;20246;-81
2023/05/04 11:42:48;;;;;;;5.27;4.80;;;19.20;40.90;;;;;;6238112;28;20231;-81
2023/05/04 11:45:53;;;;;;;5.47;4.97;;;19.30;40.80;;;;;;6239384;28;20329;-79
2023/05/04 11:48:56;;;;;;;4.43;4.13;;;19.40;40.80;;;;;;6226187;28;20262;-81
2023/05/04 11:52:06;;;;;;;5.13;4.00;;;19.50;40.20;;;;;;6234155;28;21258;-83
2023/05/04 11:55:12;;;;;;;5.17;4.53;;;19.70;40.60;;;;;;6234060;28;20703;-80
2023/05/04 11:58:15;;;;;;;6.63;3.80;;;19.90;39.40;;;;;;6226361;28;20235;-81
2023/05/04 12:01:18;;;;;;;7.50;4.07;;;19.70;40.00;;;;;;6241355;28;20245;-80
2023/05/04 12:04:21;;;;;;;7.67;4.30;;;19.80;41.00;;;;;;6239584;28;20230;-80
2023/05/04 12:07:25;;;;;;;3.97;3.67;;;19.70;40.40;;;;;;6234099;28;20693;-81
2023/05/04 12:10:32;;;;;;;4.27;3.97;;;19.90;39.60;;;;;;6238550;28;20235;-81
2023/05/04 12:13:35;;;;;;;4.27;3.97;;;20.00;39.80;;;;;;6229657;28;20274;-80
2023/05/04 12:16:39;;;;;;;4.20;3.90;;;20.10;40.20;;;;;;6238270;28;20265;-80
2023/05/04 12:19:50;;;;;;;4.33;3.80;;;20.30;40.70;;;;;;6248340;28;20230;-81
2023/05/04 12:22:54;;;;;;;4.47;3.90;;;20.30;40.60;;;;;;6243023;28;20243;-81
2023/05/04 12:25:58;;;;;;;5.87;4.67;;;20.50;40.30;;;;;;6243824;28;20231;-81
2023/05/04 12:29:01;;;;;;;4.77;4.23;;;20.50;38.90;;;;;;6240332;28;20255;-81
2023/05/04 12:32:04;;;;;;;3.87;3.50;;;20.40;39.20;;;;;;6229772;28;20239;-80
2023/05/04 12:35:08;;;;;;;4.53;4.13;;;20.50;39.30;;;;;;6232869;28;20238;-81
2023/05/04 12:38:11;;;;;;;5.10;4.43;;;20.30;39.20;;;;;;6207772;28;20242;-82
2023/05/04 12:41:15;;;;;;;4.80;4.30;;;20.40;39.40;;;;;;6218246;28;20234;-80
2023/05/04 12:44:18;;;;;;;4.60;4.10;;;20.30;39.00;;;;;;6216645;28;20716;-81
2023/05/04 12:47:23;;;;;;;5.67;4.67;;;20.30;39.70;;;;;;6219598;28;20233;-79
2023/05/04 12:50:26;;;;;;;5.60;5.00;;;20.00;39.70;;;;;;6221906;28;20228;-80
2023/05/04 12:53:30;;;;;;;5.37;4.47;;;20.00;39.50;;;;;;6206346;28;20232;-79
2023/05/04 12:56:36;;;;;;;5.60;4.17;;;19.90;39.50;;;;;;6261337;28;20277;-80
2023/05/04 12:59:40;;;;;;;4.47;4.20;;;19.90;40.10;;;;;;6233656;28;20243;-81
2023/05/04 13:02:43;;;;;;;7.13;3.80;;;19.90;39.60;;;;;;6242212;28;20241;-80
2023/05/04 13:05:48;;;;;;;4.47;3.87;;;19.70;39.70;;;;;;6238005;28;20233;-80
2023/05/04 13:08:51;;;;;;;3.87;3.67;;;19.50;39.60;;;;;;6244217;28;20322;-80
2023/05/04 13:11:56;;;;;;;4.50;4.00;;;19.50;39.70;;;;;;6244325;28;20252;-80
2023/05/04 13:14:59;;;;;;;4.03;3.73;;;19.70;39.80;;;;;;6231008;28;20240;-79
2023/05/04 13:18:02;;;;;;;5.17;4.67;;;19.90;39.70;;;;;;6234468;28;20251;-80
2023/05/04 13:21:06;;;;;;;5.30;3.63;;;19.90;39.50;;;;;;6234517;28;20832;-81
2023/05/04 13:24:10;;;;;;;3.83;3.53;;;20.00;39.60;;;;;;6235066;28;20234;-79
2023/05/04 13:27:14;;;;;;;6.93;3.70;;;20.30;39.20;;;;;;6242670;28;21050;-79
2023/05/04 13:30:19;;;;;;;3.97;3.77;;;20.40;39.40;;;;;;6233662;28;20255;-80
2023/05/04 13:33:22;;;;;;;3.97;3.87;;;20.50;39.00;;;;;;6235643;28;20234;-79
2023/05/04 13:36:32;;;;;;;5.40;3.90;;;20.60;38.70;;;;;;6243832;28;20237;-80
2023/05/04 13:39:40;;;;;;;7.73;4.37;;;20.60;38.90;;;;;;6224044;28;20253;-79
2023/05/04 13:42:44;;;;;;;8.83;4.87;;;20.80;38.70;;;;;;6239827;28;20235;-80
2023/05/04 13:45:48;;;;;;;6.97;4.43;;;20.90;38.90;;;;;;6229686;28;20625;-80
2023/05/04 13:48:51;;;;;;;5.60;4.40;;;20.60;39.10;;;;;;6238811;28;20326;-81
2023/05/04 13:51:55;;;;;;;4.67;3.67;;;20.60;39.30;;;;;;6242186;28;20251;-85
2023/05/04 13:54:58;;;;;;;5.10;4.30;;;20.60;39.10;;;;;;6242899;28;20245;-81
2023/05/04 13:58:02;;;;;;;6.90;6.20;;;20.70;39.00;;;;;;6231107;28;20238;-80
2023/05/04 14:01:05;;;;;;;6.67;4.30;;;20.80;39.10;;;;;;6236116;28;20254;-82
2023/05/04 14:04:08;;;;;;;4.30;4.00;;;20.70;39.40;;;;;;6235740;28;21070;-79
2023/05/04 14:07:11;;;;;;;4.97;4.00;;;20.70;38.60;;;;;;6227774;28;20512;-80
2023/05/04 14:10:14;;;;;;;3.80;3.60;;;20.60;39.20;;;;;;6230203;28;20238;-80
2023/05/04 14:13:19;;;;;;;4.13;3.77;;;20.70;39.20;;;;;;6221121;28;20230;-81
2023/05/04 14:16:22;;;;;;;4.70;4.23;;;20.70;38.80;;;;;;6212624;28;20310;-80
2023/05/04 14:19:27;;;;;;;4.40;4.00;;;20.60;38.50;;;;;;6220545;28;20274;-81
2023/05/04 14:22:29;;;;;;;4.30;3.90;;;20.60;38.90;;;;;;6198815;28;20294;-80
2023/05/04 14:25:32;;;;;;;4.00;3.77;;;20.60;38.80;;;;;;6232521;28;20239;-79
2023/05/04 14:28:37;;;;;;;6.80;3.73;;;20.80;39.20;;;;;;6222392;28;20232;-82
2023/05/04 14:31:40;;;;;;;4.33;4.13;;;20.90;38.60;;;;;;6212591;28;20785;-81
2023/05/04 14:34:43;;;;;;;4.60;4.20;;;20.80;38.60;;;;;;6213018;28;20250;-79
2023/05/04 14:37:48;;;;;;;4.47;3.90;;;20.80;39.00;;;;;;6211931;28;20231;-80
2023/05/04 14:40:51;;;;;;;3.83;3.73;;;20.80;39.20;;;;;;6220300;28;20243;-79
2023/05/04 14:43:56;;;;;;;3.83;3.53;;;20.90;38.70;;;;;;6212938;28;20294;-81
2023/05/04 14:47:01;;;;;;;4.00;3.60;;;20.90;39.10;;;;;;6217896;28;20239;-81
2023/05/04 14:50:05;;;;;;;4.37;3.97;;;21.00;39.60;;;;;;6210509;28;20255;-82
2023/05/04 14:53:09;;;;;;;3.83;3.53;;;21.00;39.50;;;;;;6226681;28;20239;-80
2023/05/04 14:56:13;;;;;;;4.40;4.10;;;21.10;39.60;;;;;;6221922;28;20251;-80
2023/05/04 14:59:18;;;;;;;4.13;3.93;;;21.10;39.00;;;;;;6211125;28;20355;-83
2023/05/04 15:02:21;;;;;;;4.30;3.90;;;21.20;38.80;;;;;;6211771;28;20255;-79
2023/05/04 15:05:24;;;;;;;4.47;4.10;;;21.40;38.50;;;;;;6229973;28;20262;-79
2023/05/04 15:08:29;;;;;;;3.70;3.40;;;21.70;38.20;;;;;;6235971;28;20903;-80
2023/05/04 15:11:35;;;;;;;4.20;3.90;;;21.60;38.20;;;;;;6241444;28;20242;-80
2023/05/04 15:14:39;;;;;;;4.70;3.60;;;21.60;37.80;;;;;;6237270;28;20242;-78
2023/05/04 15:17:45;;;;;;;5.20;3.67;;;21.70;39.00;;;;;;6236904;28;20238;-80
2023/05/04 15:20:48;;;;;;;4.43;4.03;;;21.60;37.90;;;;;;6244727;28;20245;-80
2023/05/04 15:23:51;;;;;;;4.03;3.70;;;21.70;37.90;;;;;;6241305;28;20245;-78
2023/05/04 15:26:54;;;;;;;4.00;3.80;;;21.70;37.60;;;;;;6258763;28;20725;-79
2023/05/04 15:29:58;;;;;;;4.97;4.10;;;21.90;38.10;;;;;;6251686;28;20242;-81
2023/05/04 15:33:03;;;;;;;3.97;3.80;;;22.20;38.30;;;;;;6248973;28;20242;-79
2023/05/04 15:36:07;;;;;;;4.10;3.80;;;22.10;38.20;;;;;;6237532;28;20320;-79
2023/05/04 15:39:10;;;;;;;5.23;3.60;;;22.00;38.20;;;;;;6238884;28;20259;-81
2023/05/04 15:42:14;;;;;;;5.03;3.93;;;21.70;37.70;;;;;;6239555;28;20230;-78
2023/05/04 15:45:19;;;;;;;4.40;4.03;;;21.50;38.70;;;;;;6236160;28;20243;-80
2023/05/04 15:48:23;;;;;;;4.27;3.70;;;21.20;38.30;;;;;;6237354;28;20249;-80
2023/05/04 15:51:27;;;;;;;4.37;4.00;;;20.90;39.00;;;;;;6257370;28;20700;-79
2023/05/04 15:54:32;;;;;;;4.03;3.73;;;20.80;39.10;;;;;;6234477;28;20231;-81
2023/05/04 15:57:35;;;;;;;5.80;3.60;;;20.70;39.30;;;;;;6249656;28;20246;-80
2023/05/04 16:00:40;;;;;;;5.47;3.70;;;20.60;39.90;;;;;;6244703;28;20244;-80
2023/05/04 16:03:43;;;;;;;4.03;3.73;;;20.60;39.10;;;;;;6239436;28;20927;-79